createdAt,value
2023-04-17T00:08:32.960Z,99.9
2023-04-17T00:24:07.058Z,99.9
2023-04-17T00:39:41.280Z,99.8
2023-04-17T00:55:15.379Z,95.5
2023-04-17T01:10:49.381Z,94.3
2023-04-17T01:26:23.482Z,94.5
2023-04-17T01:41:57.532Z,94.7
2023-04-17T01:57:31.596Z,94.7
2023-04-17T02:13:05.574Z,95.3
2023-04-17T02:28:39.664Z,95.8
2023-04-17T02:44:13.954Z,95.6
2023-04-17T02:59:47.781Z,96.7
2023-04-17T03:15:21.875Z,95.3
2023-04-17T03:30:55.930Z,96.2
2023-04-17T03:46:30.249Z,99.1
2023-04-17T04:02:04.719Z,99.7
2023-04-17T04:17:39.021Z,99.2
2023-04-17T04:33:13.186Z,99.9
2023-04-17T04:48:47.125Z,99.9
2023-04-17T05:04:21.918Z,99.9
2023-04-17T05:19:56.314Z,99.9
2023-04-17T05:35:30.345Z,99.8
2023-04-17T05:51:04.502Z,99.9
2023-04-17T06:06:38.833Z,99.9
2023-04-17T06:22:13.039Z,99.9
2023-04-17T06:37:47.064Z,99.9
2023-04-17T06:53:21.216Z,99.9
2023-04-17T07:08:56.713Z,99.9
2023-04-17T07:24:31.031Z,99.9
2023-04-17T07:40:05.039Z,99.9
2023-04-17T07:55:39.104Z,99.9
2023-04-17T08:11:13.062Z,99.9
2023-04-17T08:26:47.605Z,99
2023-04-17T08:42:21.821Z,98.3
2023-04-17T08:57:56.320Z,96.7
2023-04-17T09:13:30.722Z,97.4
2023-04-17T09:29:04.957Z,96.8
2023-04-17T09:44:39.365Z,95.4
2023-04-17T10:00:13.373Z,92
2023-04-17T10:15:47.361Z,87.8
2023-04-17T10:31:22.345Z,87.5
2023-04-17T10:46:56.597Z,86.3
2023-04-17T11:02:31.611Z,85.3
2023-04-17T11:18:06.111Z,85.2
2023-04-17T11:33:40.348Z,82.8
2023-04-17T11:49:14.862Z,79.7
2023-04-17T12:04:50.082Z,72.7
2023-04-17T12:20:27.376Z,66
2023-04-17T12:36:01.539Z,63.4
2023-04-17T12:51:35.698Z,59
2023-04-17T13:07:09.680Z,61.6
2023-04-17T13:22:43.588Z,63
2023-04-17T13:38:17.695Z,64.7
2023-04-17T13:53:51.719Z,65.2
2023-04-17T14:09:25.852Z,62.6
2023-04-17T14:25:00.004Z,62.9
2023-04-17T14:40:34.297Z,61.1
2023-04-17T14:56:08.333Z,62.6
2023-04-17T15:11:42.710Z,62.2
2023-04-17T15:27:16.757Z,61.1
2023-04-17T15:42:50.796Z,60.7
2023-04-17T15:58:25.076Z,60.7
2023-04-17T16:13:59.228Z,60.6
2023-04-17T16:29:33.337Z,62.4
2023-04-17T16:45:07.388Z,63.1
2023-04-17T17:00:42.311Z,63.3
2023-04-17T17:16:16.980Z,62.9
2023-04-17T17:31:51.994Z,63.8
2023-04-17T17:47:26.321Z,63.6
2023-04-17T18:03:01.152Z,67.7
2023-04-17T18:18:35.689Z,67.5
2023-04-17T18:34:09.861Z,69.5
2023-04-17T18:49:43.971Z,71.1
2023-04-17T19:05:18.352Z,72.8
2023-04-17T19:20:52.566Z,73
2023-04-17T19:36:26.579Z,73
2023-04-17T19:52:00.719Z,73.4
2023-04-17T20:07:34.868Z,73
2023-04-17T20:23:09.196Z,75.7
2023-04-17T20:38:43.269Z,76.9
2023-04-17T20:54:17.263Z,78.8
2023-04-17T21:09:51.330Z,79.4
2023-04-17T21:25:25.410Z,78.9
2023-04-17T21:41:00.392Z,79.4
2023-04-17T21:56:34.369Z,80.6
2023-04-17T22:12:08.386Z,80.2
2023-04-17T22:27:42.460Z,81
2023-04-17T22:43:16.477Z,80.8
2023-04-17T22:58:50.448Z,80.1
2023-04-17T23:14:24.481Z,81.6
2023-04-17T23:29:58.655Z,85.3
2023-04-17T23:45:32.651Z,85.1
